Time;durP1;ratioP1;P1;durP2;ratioP2;P2;SDS_P1;SDS_P2;PMS_P1;PMS_P2;Temp;Humidity;BMP_temperature;BMP_pressure;BME280_temperature;BME280_humidity;BME280_pressure;Samples;Min_cycle;Max_cycle;Signal;HPM_P1;HPM_P2
2022/08/31 00:04:01;;;;;;;;;;;;;;;19.59;55.56;101964.47;4449084;32;20047;-68
2022/08/31 00:06:15;;;;;;;;;;;;;;;19.61;55.58;101957.00;4449704;32;20334;-68
2022/08/31 00:08:41;;;;;;;;;;;;;;;19.64;55.43;101963.84;4450814;32;20198;-68
2022/08/31 00:11:09;;;;;;;;;;;;;;;19.57;55.34;101959.22;4450163;32;21198;-68
2022/08/31 00:13:35;;;;;;;;;;;;;;;19.63;55.50;101960.19;4451455;32;19957;-68
2022/08/31 00:16:01;;;;;;;;;;;;;;;19.67;54.76;101960.81;4448260;32;19999;-68
2022/08/31 00:18:27;;;;;;;;;;;;;;;19.76;54.64;101958.00;4447469;32;20020;-68
2022/08/31 00:20:52;;;;;;;;;;;;;;;19.63;54.71;101953.69;4449270;32;20536;-68
2022/08/31 00:23:18;;;;;;;;;;;;;;;19.61;54.79;101961.94;4450274;32;20606;-68
2022/08/31 00:25:44;;;;;;;;;;;;;;;19.62;54.53;101961.47;4453763;32;19957;-68
2022/08/31 00:28:11;;;;;;;;;;;;;;;19.70;54.42;101957.03;4451296;32;19964;-68
2022/08/31 00:30:37;;;;;;;;;;;;;;;19.65;54.27;101942.59;4447887;32;19960;-68
2022/08/31 00:33:03;;;;;;;;;;;;;;;19.69;54.19;101954.66;4432676;32;20008;-68
2022/08/31 00:35:30;;;;;;;;;;;;;;;19.47;54.62;101953.97;4453395;32;19953;-68
2022/08/31 00:37:56;;;;;;;;;;;;;;;19.39;55.12;101964.09;4448317;32;20063;-68
2022/08/31 00:40:22;;;;;;;;;;;;;;;19.56;54.73;101957.66;4450473;32;20293;-68
2022/08/31 00:42:49;;;;;;;;;;;;;;;19.68;54.37;101961.63;4448635;32;20321;-68
2022/08/31 00:45:15;;;;;;;;;;;;;;;19.46;54.98;101964.56;4450738;32;19960;-68
2022/08/31 00:47:40;;;;;;;;;;;;;;;19.35;55.52;101958.53;4447479;32;19957;-68
2022/08/31 00:50:08;;;;;;;;;;;;;;;19.45;55.17;101962.19;4447219;32;19952;-68
2022/08/31 00:52:36;;;;;;;;;;;;;;;19.18;56.01;101960.00;4443556;32;20184;-68
2022/08/31 00:55:06;;;;;;;;;;;;;;;19.25;55.71;101956.06;4450929;32;19971;-68
2022/08/31 00:57:35;;;;;;;;;;;;;;;19.35;55.81;101963.44;4449999;32;20042;-68
2022/08/31 01:00:03;;;;;;;;;;;;;;;19.44;55.59;101955.69;4446224;32;20011;-68
2022/08/31 01:02:29;;;;;;;;;;;;;;;19.32;56.08;101958.66;4448980;32;19997;-68
2022/08/31 01:04:55;;;;;;;;;;;;;;;19.23;56.56;101961.44;4445747;32;20012;-68
2022/08/31 01:07:21;;;;;;;;;;;;;;;19.33;56.19;101958.19;4447028;32;20000;-68
2022/08/31 01:09:47;;;;;;;;;;;;;;;19.39;56.24;101955.53;4450029;32;19948;-68
2022/08/31 01:12:12;;;;;;;;;;;;;;;19.41;56.23;101952.97;4446784;32;20302;-68
2022/08/31 01:14:40;;;;;;;;;;;;;;;19.57;55.81;101956.38;4449855;32;20008;-68
2022/08/31 01:17:06;;;;;;;;;;;;;;;19.47;55.79;101951.91;4446542;32;20553;-68
2022/08/31 01:19:36;;;;;;;;;;;;;;;19.39;56.50;101961.25;4446471;32;19975;-68
2022/08/31 01:22:21;;;;;;;;;;;;;;;19.36;56.29;101957.25;4451288;32;19989;-68
2022/08/31 01:24:48;;;;;;;;;;;;;;;19.38;56.59;101969.00;4447731;32;19992;-68
2022/08/31 01:27:15;;;;;;;;;;;;;;;19.27;56.93;101959.28;4450751;32;20004;-68
2022/08/31 01:29:41;;;;;;;;;;;;;;;19.17;57.15;101951.91;4444850;32;20343;-68
2022/08/31 01:32:07;;;;;;;;;;;;;;;19.33;56.86;101948.84;4449527;32;19993;-68
2022/08/31 01:34:33;;;;;;;;;;;;;;;19.30;56.84;101949.78;4446780;32;20070;-68
2022/08/31 01:36:58;;;;;;;;;;;;;;;19.30;56.91;101952.63;4449369;32;20359;-68
2022/08/31 01:39:24;;;;;;;;;;;;;;;19.13;57.52;101960.62;4447979;32;19956;-68
2022/08/31 01:41:50;;;;;;;;;;;;;;;19.25;57.16;101951.16;4450257;32;20298;-68
2022/08/31 01:44:18;;;;;;;;;;;;;;;19.17;57.40;101955.56;4448659;32;20021;-68
2022/08/31 01:46:44;;;;;;;;;;;;;;;19.25;57.32;101954.00;4447339;32;20685;-68
2022/08/31 01:49:10;;;;;;;;;;;;;;;19.33;57.08;101949.63;4448465;32;19999;-68
2022/08/31 01:51:35;;;;;;;;;;;;;;;19.27;57.23;101957.22;4448996;32;19996;-68
2022/08/31 01:54:02;;;;;;;;;;;;;;;19.32;57.16;101967.22;4449630;32;20154;-68
2022/08/31 01:56:30;;;;;;;;;;;;;;;19.26;57.56;101955.63;4448686;32;20063;-68
2022/08/31 01:58:56;;;;;;;;;;;;;;;19.30;57.47;101958.34;4447187;32;19993;-68
2022/08/31 02:01:25;;;;;;;;;;;;;;;19.39;57.35;101956.31;4450773;32;19957;-68
2022/08/31 02:03:50;;;;;;;;;;;;;;;19.30;57.43;101961.19;4448991;32;19996;-68
2022/08/31 02:06:16;;;;;;;;;;;;;;;19.46;57.05;101963.78;4448233;32;20410;-68
2022/08/31 02:08:41;;;;;;;;;;;;;;;19.35;57.44;101958.53;4449443;32;20349;-68
2022/08/31 02:11:07;;;;;;;;;;;;;;;19.35;57.59;101955.66;4446851;32;19957;-68
2022/08/31 02:13:33;;;;;;;;;;;;;;;19.28;57.74;101960.88;4451301;32;20024;-68
2022/08/31 02:15:59;;;;;;;;;;;;;;;19.16;58.43;101962.53;4445871;32;19964;-68
2022/08/31 02:18:25;;;;;;;;;;;;;;;19.26;58.13;101958.47;4446323;32;19956;-68
2022/08/31 02:20:50;;;;;;;;;;;;;;;19.38;57.82;101962.50;4447779;32;19967;-68
2022/08/31 02:23:16;;;;;;;;;;;;;;;19.28;58.08;101958.81;4448365;32;20288;-68
2022/08/31 02:25:42;;;;;;;;;;;;;;;19.34;58.12;101961.84;4435653;32;20394;-68
2022/08/31 02:28:11;;;;;;;;;;;;;;;19.42;57.49;101958.22;4451716;32;20239;-68
2022/08/31 02:30:37;;;;;;;;;;;;;;;19.27;58.47;101953.59;4448476;32;19997;-68
2022/08/31 02:33:02;;;;;;;;;;;;;;;19.27;58.64;101956.44;4453592;32;19961;-68
2022/08/31 02:35:28;;;;;;;;;;;;;;;19.39;58.38;101952.69;4453140;32;19976;-68
2022/08/31 02:37:54;;;;;;;;;;;;;;;19.45;58.12;101945.87;4450621;32;19953;-68
2022/08/31 02:40:19;;;;;;;;;;;;;;;19.43;58.25;101950.47;4455000;32;20323;-68
2022/08/31 02:42:45;;;;;;;;;;;;;;;19.39;58.37;101956.31;4451198;32;19990;-68
2022/08/31 02:45:10;;;;;;;;;;;;;;;19.48;57.62;101956.34;4449241;32;19949;-68
2022/08/31 02:47:36;;;;;;;;;;;;;;;19.52;57.60;101959.06;4449911;32;20186;-68
2022/08/31 02:50:03;;;;;;;;;;;;;;;19.33;58.37;101952.47;4451348;32;19964;-68
2022/08/31 02:52:28;;;;;;;;;;;;;;;19.36;58.08;101956.47;4449424;32;20008;-68
2022/08/31 02:54:54;;;;;;;;;;;;;;;19.33;58.00;101955.34;4449582;32;19963;-68
2022/08/31 02:57:19;;;;;;;;;;;;;;;19.27;58.28;101954.34;4453116;32;20157;-68
2022/08/31 02:59:45;;;;;;;;;;;;;;;19.21;58.58;101949.72;4448136;32;20339;-68
2022/08/31 03:02:10;;;;;;;;;;;;;;;19.18;58.44;101956.38;4451627;32;20000;-68
2022/08/31 03:04:36;;;;;;;;;;;;;;;19.14;58.82;101952.84;4450654;32;20000;-68
2022/08/31 03:07:02;;;;;;;;;;;;;;;19.06;59.26;101954.41;4447289;32;19949;-68
2022/08/31 03:09:27;;;;;;;;;;;;;;;19.21;58.94;101953.34;4448221;32;20024;-68
2022/08/31 03:11:53;;;;;;;;;;;;;;;19.26;58.25;101952.78;4452903;32;20397;-68
2022/08/31 03:14:18;;;;;;;;;;;;;;;19.25;58.67;101948.31;4452792;32;20385;-68
2022/08/31 03:16:44;;;;;;;;;;;;;;;19.23;58.40;101945.13;4448417;32;19953;-68
2022/08/31 03:19:10;;;;;;;;;;;;;;;19.12;58.97;101953.31;4437732;32;19981;-68
2022/08/31 03:21:36;;;;;;;;;;;;;;;18.99;59.27;101946.13;4450881;32;19988;-68
2022/08/31 03:24:02;;;;;;;;;;;;;;;19.16;58.42;101962.53;4447929;32;20648;-68
2022/08/31 03:26:27;;;;;;;;;;;;;;;19.16;58.96;101945.41;4449650;32;20028;-68
2022/08/31 03:28:54;;;;;;;;;;;;;;;19.19;58.58;101947.34;4446096;32;19996;-68
2022/08/31 03:31:21;;;;;;;;;;;;;;;19.19;58.75;101947.34;4451110;32;19953;-68
2022/08/31 03:33:46;;;;;;;;;;;;;;;19.15;58.84;101943.81;4447574;32;20346;-68
2022/08/31 03:36:14;;;;;;;;;;;;;;;19.15;58.90;101945.87;4450138;32;19967;-68
2022/08/31 03:38:39;;;;;;;;;;;;;;;19.19;58.82;101943.66;4451803;32;19958;-68
2022/08/31 03:41:05;;;;;;;;;;;;;;;19.21;58.71;101939.06;4452141;32;19957;-68
2022/08/31 03:43:31;;;;;;;;;;;;;;;19.20;58.79;101937.50;4448458;32;20282;-68
2022/08/31 03:45:56;;;;;;;;;;;;;;;19.17;58.70;101943.34;4448047;32;19988;-68
2022/08/31 03:48:22;;;;;;;;;;;;;;;19.10;59.07;101955.03;4449412;32;20445;-68
2022/08/31 03:50:47;;;;;;;;;;;;;;;19.24;58.72;101943.84;4450909;32;19952;-68
2022/08/31 03:53:13;;;;;;;;;;;;;;;19.25;58.67;101939.75;4450106;32;19953;-68
2022/08/31 03:55:40;;;;;;;;;;;;;;;19.23;58.72;101938.59;4451420;32;20339;-68
2022/08/31 03:58:05;;;;;;;;;;;;;;;19.28;58.60;101941.69;4452382;32;19969;-68
2022/08/31 04:00:31;;;;;;;;;;;;;;;19.32;58.27;101941.53;4453386;32;20385;-68
2022/08/31 04:02:58;;;;;;;;;;;;;;;19.29;58.35;101945.31;4447864;32;19969;-68
2022/08/31 04:05:26;;;;;;;;;;;;;;;19.20;58.52;101945.25;4448299;32;19996;-68
2022/08/31 04:07:53;;;;;;;;;;;;;;;19.11;59.14;101933.78;4446750;32;19953;-68
2022/08/31 04:10:19;;;;;;;;;;;;;;;19.10;58.86;101932.22;4449703;32;19976;-68
2022/08/31 04:12:44;;;;;;;;;;;;;;;19.17;58.80;101937.63;4447262;32;20386;-68
2022/08/31 04:15:10;;;;;;;;;;;;;;;19.00;59.24;101934.25;4452125;32;19957;-68
2022/08/31 04:17:36;;;;;;;;;;;;;;;18.97;59.60;101937.22;4449308;32;19988;-68
2022/08/31 04:20:01;;;;;;;;;;;;;;;18.91;59.71;101934.19;4433522;32;20662;-68
2022/08/31 04:22:27;;;;;;;;;;;;;;;18.80;60.32;101938.72;4452231;32;20358;-68
2022/08/31 04:24:53;;;;;;;;;;;;;;;18.84;59.99;101940.16;4445793;32;19945;-68
2022/08/31 04:27:18;;;;;;;;;;;;;;;18.85;60.26;101935.25;4449645;32;20023;-68
2022/08/31 04:29:43;;;;;;;;;;;;;;;18.82;60.46;101939.03;4446121;32;19988;-68
2022/08/31 04:32:09;;;;;;;;;;;;;;;18.70;61.02;101937.88;4452614;32;20790;-68
2022/08/31 04:34:35;;;;;;;;;;;;;;;18.80;60.63;101939.50;4452201;32;19957;-68
2022/08/31 04:37:00;;;;;;;;;;;;;;;18.75;60.77;101945.03;4448880;32;20409;-68
2022/08/31 04:39:26;;;;;;;;;;;;;;;18.82;60.75;101944.75;4449333;32;19997;-68
2022/08/31 04:41:52;;;;;;;;;;;;;;;18.86;60.75;101931.13;4447353;32;20001;-68
2022/08/31 04:44:18;;;;;;;;;;;;;;;18.64;61.27;101941.78;4450270;32;19998;-67
2022/08/31 04:46:44;;;;;;;;;;;;;;;18.71;60.91;101947.22;4449280;32;19961;-67
2022/08/31 04:49:13;;;;;;;;;;;;;;;18.66;61.02;101942.13;4449359;32;20033;-67
2022/08/31 04:51:39;;;;;;;;;;;;;;;18.59;61.14;101943.19;4447927;32;20416;-67
2022/08/31 04:54:07;;;;;;;;;;;;;;;18.59;61.25;101946.03;4447900;32;19964;-67
2022/08/31 04:56:36;;;;;;;;;;;;;;;18.47;61.86;101940.41;4446551;32;19957;-67
2022/08/31 04:59:03;;;;;;;;;;;;;;;18.39;62.26;101939.09;4431707;32;19966;-67
2022/08/31 05:01:31;;;;;;;;;;;;;;;18.41;62.11;101943.03;4448932;32;19992;-67
2022/08/31 05:03:57;;;;;;;;;;;;;;;18.46;61.90;101938.81;4449051;32;19984;-67
2022/08/31 05:06:24;;;;;;;;;;;;;;;18.34;62.40;101937.59;4446897;32;20352;-67
2022/08/31 05:08:51;;;;;;;;;;;;;;;18.47;61.71;101944.03;4444760;32;20383;-67
2022/08/31 05:11:18;;;;;;;;;;;;;;;18.44;62.16;101944.97;4444541;32;20039;-67
2022/08/31 05:13:43;;;;;;;;;;;;;;;18.40;62.25;101940.66;4448075;32;19996;-67
2022/08/31 05:16:10;;;;;;;;;;;;;;;18.50;62.00;101951.66;4443961;32;20359;-67
2022/08/31 05:18:36;;;;;;;;;;;;;;;18.57;61.95;101947.78;4445704;32;20028;-67
2022/08/31 05:21:30;;;;;;;;;;;;;;;18.39;62.29;101944.78;4433738;32;19948;-67
2022/08/31 05:23:57;;;;;;;;;;;;;;;18.53;61.89;101945.03;4446384;32;19991;-67
2022/08/31 05:26:24;;;;;;;;;;;;;;;18.47;62.12;101952.59;4450317;32;20001;-67
2022/08/31 05:28:50;;;;;;;;;;;;;;;18.52;61.98;101949.16;4448848;32;19969;-67
2022/08/31 05:31:16;;;;;;;;;;;;;;;18.65;61.88;101947.03;4447284;32;20290;-67
2022/08/31 05:33:43;;;;;;;;;;;;;;;18.73;61.45;101953.25;4449934;32;19996;-67
2022/08/31 05:36:09;;;;;;;;;;;;;;;18.78;61.27;101955.50;4449484;32;20006;-67
2022/08/31 05:38:35;;;;;;;;;;;;;;;18.90;60.86;101966.03;4446881;32;20031;-67
2022/08/31 05:41:01;;;;;;;;;;;;;;;19.10;59.99;101969.31;4446987;32;20424;-67
2022/08/31 05:43:27;;;;;;;;;;;;;;;19.23;59.89;101970.00;4450726;32;20028;-67
2022/08/31 05:45:53;;;;;;;;;;;;;;;19.20;59.74;101973.78;4435288;32;19997;-67
2022/08/31 05:48:19;;;;;;;;;;;;;;;19.17;59.47;101975.53;4447680;32;20417;-67
2022/08/31 05:50:44;;;;;;;;;;;;;;;19.28;59.78;101975.13;4446112;32;19948;-67
2022/08/31 05:53:10;;;;;;;;;;;;;;;19.36;59.58;101973.59;4448326;32;20030;-67
2022/08/31 05:55:35;;;;;;;;;;;;;;;19.27;59.23;101971.47;4450103;32;19964;-67
2022/08/31 05:58:01;;;;;;;;;;;;;;;19.39;59.48;101976.28;4447173;32;20362;-67
2022/08/31 06:00:26;;;;;;;;;;;;;;;19.42;59.25;101975.34;4446920;32;20011;-67
2022/08/31 06:02:52;;;;;;;;;;;;;;;19.48;59.37;101970.62;4450678;32;20000;-67
2022/08/31 06:05:17;;;;;;;;;;;;;;;19.54;59.13;101977.31;4449571;32;20397;-67
2022/08/31 06:07:45;;;;;;;;;;;;;;;19.36;59.36;101976.47;4453218;32;20300;-67
2022/08/31 06:10:11;;;;;;;;;;;;;;;19.54;58.99;101976.50;4450849;32;19945;-67
2022/08/31 06:12:39;;;;;;;;;;;;;;;19.70;58.55;101984.81;4449061;32;20012;-67
2022/08/31 06:15:05;;;;;;;;;;;;;;;19.50;59.11;101982.37;4452013;32;20613;-67
2022/08/31 06:17:31;;;;;;;;;;;;;;;19.55;59.09;101978.09;4452511;32;20383;-67
2022/08/31 06:19:57;;;;;;;;;;;;;;;19.51;59.22;101972.53;4445654;32;19957;-67
2022/08/31 06:22:22;;;;;;;;;;;;;;;19.53;58.88;101977.78;4452714;32;20373;-67
2022/08/31 06:24:48;;;;;;;;;;;;;;;19.72;58.37;101977.34;4453323;32;20697;-67
2022/08/31 06:27:13;;;;;;;;;;;;;;;19.61;58.77;101973.38;4453570;32;19963;-67
2022/08/31 06:29:40;;;;;;;;;;;;;;;19.44;59.12;101972.84;4446277;32;19957;-67
2022/08/31 06:32:06;;;;;;;;;;;;;;;19.43;59.54;101976.94;4450876;32;19953;-68
2022/08/31 06:34:32;;;;;;;;;;;;;;;19.28;60.32;101972.28;4453128;32;20433;-67
2022/08/31 06:36:58;;;;;;;;;;;;;;;19.48;59.83;101976.31;4454532;32;20094;-67
2022/08/31 06:39:24;;;;;;;;;;;;;;;19.65;59.22;101989.09;4448082;32;19987;-67
2022/08/31 06:41:51;;;;;;;;;;;;;;;19.66;59.16;101984.16;4451317;32;20024;-67
2022/08/31 06:44:19;;;;;;;;;;;;;;;19.80;58.69;101983.56;4448218;32;19996;-68
2022/08/31 06:46:46;;;;;;;;;;;;;;;19.63;59.03;101980.19;4450732;32;20376;-67
2022/08/31 06:49:12;;;;;;;;;;;;;;;19.89;58.50;101983.59;4449493;32;20490;-67
2022/08/31 06:51:37;;;;;;;;;;;;;;;20.04;57.91;101980.91;4434768;32;19988;-67
2022/08/31 06:54:06;;;;;;;;;;;;;;;20.28;57.56;101988.41;4446411;32;20428;-67
2022/08/31 06:56:32;;;;;;;;;;;;;;;20.18;57.42;101998.25;4450288;32;19957;-67
2022/08/31 06:59:00;;;;;;;;;;;;;;;20.29;57.10;101992.87;4446725;32;19953;-67
2022/08/31 07:01:27;;;;;;;;;;;;;;;20.24;57.17;101999.22;4447060;32;19996;-67
2022/08/31 07:03:53;;;;;;;;;;;;;;;20.46;57.40;101999.84;4447817;32;19963;-67
2022/08/31 07:06:21;;;;;;;;;;;;;;;20.62;56.73;102002.38;4449712;32;19961;-68
2022/08/31 07:08:48;;;;;;;;;;;;;;;20.58;56.63;101998.91;4447093;32;19949;-67
2022/08/31 07:11:15;;;;;;;;;;;;;;;20.39;57.64;102007.94;4449919;32;20024;-66
2022/08/31 07:13:42;;;;;;;;;;;;;;;20.40;57.96;102004.62;4450233;32;20040;-68
2022/08/31 07:16:09;;;;;;;;;;;;;;;20.47;57.72;102010.03;4448021;32;20427;-67
2022/08/31 07:18:35;;;;;;;;;;;;;;;20.76;57.29;102006.66;4446862;32;20000;-67
2022/08/31 07:23:51;;;;;;;;;;;;;;;21.62;55.19;102003.72;3951107;32;15834628;-68
2022/08/31 07:26:24;;;;;;;;;;;;;;;21.62;55.19;102003.72;4439735;32;20004;-68
2022/08/31 07:28:52;;;;;;;;;;;;;;;21.28;55.19;102018.50;4435159;32;20005;-68
2022/08/31 07:31:21;;;;;;;;;;;;;;;21.39;54.88;102013.03;4437693;32;19966;-68
2022/08/31 07:33:49;;;;;;;;;;;;;;;21.16;55.54;102010.09;4424059;32;20512;-68
2022/08/31 07:36:15;;;;;;;;;;;;;;;21.13;55.70;102013.94;4424174;32;19996;-68
2022/08/31 07:44:13;;;;;;;;;;;;;;;21.40;55.71;102013.84;4438472;32;19949;-69
2022/08/31 07:46:39;;;;;;;;;;;;;;;21.49;55.10;102014.62;4435926;32;20322;-68
2022/08/31 07:49:12;;;;;;;;;;;;;;;21.23;55.81;101999.13;4433062;32;20016;-68
2022/08/31 07:51:42;;;;;;;;;;;;;;;21.40;55.82;102003.19;4435382;32;20356;-68
2022/08/31 07:54:09;;;;;;;;;;;;;;;21.41;55.50;102009.69;4437120;32;19997;-68
2022/08/31 07:56:36;;;;;;;;;;;;;;;21.29;56.31;102007.84;4436410;32;20172;-68
2022/08/31 07:59:06;;;;;;;;;;;;;;;21.73;55.24;102008.12;4434560;32;20028;-68
2022/08/31 08:01:33;;;;;;;;;;;;;;;21.95;54.47;102011.53;4435062;32;20016;-68
2022/08/31 08:04:00;;;;;;;;;;;;;;;22.19;53.50;102006.59;4436452;32;19968;-68
2022/08/31 08:06:27;;;;;;;;;;;;;;;21.89;54.57;101999.16;4437187;32;19994;-68
2022/08/31 08:08:54;;;;;;;;;;;;;;;22.19;53.80;102007.41;4437100;32;20294;-68
2022/08/31 08:11:20;;;;;;;;;;;;;;;22.39;53.36;102007.53;4437527;32;20084;-68
2022/08/31 08:13:47;;;;;;;;;;;;;;;22.41;52.93;102013.59;4436884;32;19953;-68
2022/08/31 08:16:12;;;;;;;;;;;;;;;22.65;52.73;102007.84;4435631;32;19984;-68
2022/08/31 08:18:38;;;;;;;;;;;;;;;22.81;52.05;102010.22;4437133;32;20429;-68
2022/08/31 08:21:04;;;;;;;;;;;;;;;23.09;51.16;102018.06;4437994;32;20374;-68
2022/08/31 08:23:29;;;;;;;;;;;;;;;22.87;51.23;102009.06;4434873;32;19957;-68
2022/08/31 08:25:56;;;;;;;;;;;;;;;23.21;50.91;102013.31;4437819;32;20371;-68
2022/08/31 08:28:21;;;;;;;;;;;;;;;23.09;51.09;102012.34;4434829;32;19997;-69
2022/08/31 08:30:49;;;;;;;;;;;;;;;23.46;50.27;102015.59;4435406;32;20002;-68
2022/08/31 08:33:16;;;;;;;;;;;;;;;23.79;49.48;102021.06;4433498;32;19980;-68
2022/08/31 08:35:43;;;;;;;;;;;;;;;23.74;49.30;102016.03;4424185;32;19966;-68
2022/08/31 08:38:08;;;;;;;;;;;;;;;24.07;48.36;102014.47;4426703;32;20009;-65
2022/08/31 08:40:36;;;;;;;;;;;;;;;24.35;47.80;102018.50;4430399;32;20224;-66
2022/08/31 08:43:03;;;;;;;;;;;;;;;24.28;47.81;102013.19;4428671;32;19949;-65
2022/08/31 08:45:30;;;;;;;;;;;;;;;24.74;46.55;102016.91;4429335;32;20144;-67
2022/08/31 08:47:56;;;;;;;;;;;;;;;25.01;46.31;102018.50;4427766;32;19945;-66
2022/08/31 08:50:22;;;;;;;;;;;;;;;25.26;45.62;102021.38;4429666;32;20316;-67
2022/08/31 08:52:48;;;;;;;;;;;;;;;25.46;45.02;102020.50;4428625;32;19999;-66
2022/08/31 08:55:17;;;;;;;;;;;;;;;25.72;44.44;102017.53;4419736;32;20055;-67
2022/08/31 08:57:43;;;;;;;;;;;;;;;26.30;43.25;102014.78;4425375;32;19953;-67
2022/08/31 09:00:20;;;;;;;;;;;;;;;26.46;41.89;102019.81;4421233;32;20427;-67
2022/08/31 09:02:49;;;;;;;;;;;;;;;26.76;41.48;102012.34;4425667;32;19980;-66
2022/08/31 09:05:23;;;;;;;;;;;;;;;26.74;41.67;102006.28;4417679;32;20224;-67
2022/08/31 09:10:40;;;;;;;;;;;;;;;27.48;39.75;102008.75;3947845;32;15723360;-66
2022/08/31 09:13:12;;;;;;;;;;;;;;;27.48;39.75;102008.75;4426451;32;20036;-67
2022/08/31 09:21:18;;;;;;;;;;;;;;;27.50;39.34;102001.12;3956620;32;15723252;-68
2022/08/31 09:23:47;;;;;;;;;;;;;;;27.50;39.34;102001.12;4437718;32;20532;-66
2022/08/31 09:26:14;;;;;;;;;;;;;;;27.43;39.55;102009.53;4434413;32;20014;-68
2022/08/31 09:28:45;;;;;;;;;;;;;;;27.32;39.11;102009.53;4437846;32;19969;-69
2022/08/31 09:31:33;;;;;;;;;;;;;;;27.44;38.65;101997.44;4437732;32;20053;-68
2022/08/31 09:33:59;;;;;;;;;;;;;;;27.38;39.18;101999.56;4437862;32;19957;-69
2022/08/31 09:36:32;;;;;;;;;;;;;;;27.61;38.89;101995.31;4434814;32;19950;-69
2022/08/31 09:39:12;;;;;;;;;;;;;;;27.81;37.51;101995.03;4438777;32;20008;-67
2022/08/31 09:41:37;;;;;;;;;;;;;;;27.85;37.24;102001.31;4440298;32;20003;-67
2022/08/31 09:44:23;;;;;;;;;;;;;;;27.30;38.07;102001.38;4438923;32;19957;-67
2022/08/31 09:46:50;;;;;;;;;;;;;;;27.81;36.97;101989.25;4437162;32;19995;-69
2022/08/31 09:49:20;;;;;;;;;;;;;;;27.97;36.35;101997.13;4437452;32;20024;-68
2022/08/31 09:51:47;;;;;;;;;;;;;;;28.07;36.08;101992.63;4440566;32;20037;-68
2022/08/31 09:56:54;;;;;;;;;;;;;;;28.43;36.26;101994.31;3946806;32;15723398;-69
2022/08/31 09:59:30;;;;;;;;;;;;;;;28.43;36.26;101994.31;4423922;32;19989;-68
2022/08/31 10:01:57;;;;;;;;;;;;;;;28.49;35.10;101985.63;4423212;32;20381;-69
2022/08/31 10:04:25;;;;;;;;;;;;;;;28.65;34.82;101987.62;4425234;32;20001;-69
2022/08/31 10:07:12;;;;;;;;;;;;;;;28.57;34.62;101977.94;4421856;32;20008;-69
2022/08/31 10:09:57;;;;;;;;;;;;;;;28.53;34.46;101989.03;4425217;32;19965;-68
2022/08/31 10:15:04;;;;;;;;;;;;;;;29.59;33.35;101984.03;3948161;32;15723475;-68
2022/08/31 10:17:34;;;;;;;;;;;;;;;29.59;33.35;101984.03;4421722;32;20221;-69
2022/08/31 10:20:06;;;;;;;;;;;;;;;28.56;34.63;101979.28;4418842;32;20022;-68
2022/08/31 10:22:40;;;;;;;;;;;;;;;28.42;34.43;101978.28;4419111;32;20351;-68
2022/08/31 10:27:47;;;;;;;;;;;;;;;27.79;35.42;101968.72;3948615;32;15724092;-68
2022/08/31 10:33:03;;;;;;;;;;;;;;;28.21;35.03;101959.69;3947090;32;15724625;-68
2022/08/31 10:35:36;;;;;;;;;;;;;;;28.21;35.03;101959.69;4417367;32;20004;-69
2022/08/31 10:38:24;;;;;;;;;;;;;;;28.23;35.06;101962.03;4420061;32;19985;-67
2022/08/31 10:43:31;;;;;;;;;;;;;;;28.69;33.79;101964.97;3956330;32;15721410;-68
2022/08/31 10:45:56;;;;;;;;;;;;;;;28.69;33.79;101964.97;4438807;32;19997;-68
2022/08/31 10:48:23;;;;;;;;;;;;;;;28.45;33.93;101959.03;4436004;32;20332;-68
2022/08/31 10:51:16;;;;;;;;;;;;;;;29.26;32.82;101947.41;4438866;32;19996;-68
2022/08/31 11:01:38;;;;;;;;;;;;;;;29.86;31.38;101951.84;3947026;32;15727434;-69
2022/08/31 11:06:48;;;;;;;;;;;;;;;31.72;28.91;101951.69;3955317;31;15717136;-68
2022/08/31 11:09:18;;;;;;;;;;;;;;;31.72;28.91;101951.69;4429419;32;20100;-66
2022/08/31 11:11:47;;;;;;;;;;;;;;;31.28;28.05;101946.69;4432186;32;20004;-68
2022/08/31 11:22:43;;;;;;;;;;;;;;;34.69;22.03;101952.13;3940204;32;15723541;-69
2022/08/31 11:27:51;;;;;;;;;;;;;;;35.49;21.45;101947.63;3945997;32;15725505;-69
2022/08/31 11:30:25;;;;;;;;;;;;;;;35.49;21.45;101947.63;4421121;32;20004;-69
2022/08/31 11:32:54;;;;;;;;;;;;;;;35.42;21.05;101946.25;4422753;32;20458;-69
2022/08/31 11:35:39;;;;;;;;;;;;;;;35.74;20.27;101945.63;4419489;32;20004;-69
2022/08/31 11:38:05;;;;;;;;;;;;;;;35.52;20.58;101938.41;4422810;32;20497;-69
2022/08/31 11:43:30;;;;;;;;;;;;;;;32.71;22.22;101943.78;3950277;32;15722346;-68
2022/08/31 11:46:00;;;;;;;;;;;;;;;32.71;22.22;101943.78;4427856;32;20046;-69
2022/08/31 11:48:47;;;;;;;;;;;;;;;31.97;23.08;101933.47;4426178;32;19976;-69
2022/08/31 11:51:26;;;;;;;;;;;;;;;31.42;23.81;101940.38;4425790;32;20345;-69
2022/08/31 11:53:54;;;;;;;;;;;;;;;30.95;24.70;101938.50;4425668;32;20012;-69
2022/08/31 11:56:32;;;;;;;;;;;;;;;31.18;25.06;101933.88;4425021;32;19972;-69
2022/08/31 11:59:17;;;;;;;;;;;;;;;31.91;24.44;101921.13;4425565;32;20112;-69
2022/08/31 12:01:43;;;;;;;;;;;;;;;31.86;24.17;101919.16;4426175;32;20039;-69
2022/08/31 12:04:29;;;;;;;;;;;;;;;31.67;24.15;101908.91;4425543;32;19969;-69
2022/08/31 12:06:57;;;;;;;;;;;;;;;32.16;23.59;101916.66;4426579;32;20012;-69
2022/08/31 12:12:21;;;;;;;;;;;;;;;32.77;21.18;101915.28;3947362;32;15722594;-68
2022/08/31 12:20:21;;;;;;;;;;;;;;;34.12;20.23;101903.94;3948361;32;15723372;-69
2022/08/31 12:25:28;;;;;;;;;;;;;;;34.72;20.90;101903.41;3948790;32;15723594;-68
2022/08/31 12:28:14;;;;;;;;;;;;;;;34.72;20.90;101903.41;4418174;32;19972;-69
2022/08/31 12:30:55;;;;;;;;;;;;;;;34.57;20.69;101898.28;4419751;32;20103;-67
2022/08/31 12:33:24;;;;;;;;;;;;;;;34.87;20.47;101901.28;4419355;32;19997;-67
2022/08/31 12:35:52;;;;;;;;;;;;;;;34.96;20.24;101891.16;4420482;32;20008;-69
2022/08/31 12:38:19;;;;;;;;;;;;;;;34.48;20.49;101892.22;4416121;32;20719;-67
2022/08/31 12:40:46;;;;;;;;;;;;;;;34.42;20.97;101901.19;4419049;32;20012;-68
2022/08/31 12:43:32;;;;;;;;;;;;;;;33.63;21.66;101906.94;4418288;32;20435;-67
2022/08/31 12:46:05;;;;;;;;;;;;;;;32.52;22.84;101888.56;4415812;32;20428;-67
2022/08/31 12:48:48;;;;;;;;;;;;;;;31.93;23.45;101883.53;4418181;32;20429;-67
2022/08/31 13:01:48;;;;;;;;;;;;;;;33.57;20.46;101873.41;3944119;32;15725463;-67
2022/08/31 13:04:14;;;;;;;;;;;;;;;33.57;20.46;101873.41;4421041;32;20036;-69
2022/08/31 13:06:43;;;;;;;;;;;;;;;33.39;21.03;101865.69;4420430;32;20195;-69
2022/08/31 13:09:22;;;;;;;;;;;;;;;33.67;21.38;101859.84;4419138;32;19996;-69
2022/08/31 13:11:50;;;;;;;;;;;;;;;34.41;20.14;101863.75;4419871;32;19961;-67
2022/08/31 13:14:19;;;;;;;;;;;;;;;34.96;19.35;101874.41;4420781;32;19975;-68
2022/08/31 13:16:47;;;;;;;;;;;;;;;34.88;19.24;101873.59;4418072;32;20040;-67
2022/08/31 13:19:18;;;;;;;;;;;;;;;34.63;19.73;101872.56;4421889;32;20416;-67
2022/08/31 13:21:53;;;;;;;;;;;;;;;33.56;20.79;101878.47;4418115;32;20052;-67
2022/08/31 13:24:22;;;;;;;;;;;;;;;32.55;22.25;101869.94;4421143;32;20016;-67
2022/08/31 13:27:01;;;;;;;;;;;;;;;32.86;22.06;101861.53;4419272;32;20555;-67
2022/08/31 13:29:26;;;;;;;;;;;;;;;33.56;20.88;101866.78;4420623;32;19989;-68
2022/08/31 13:31:52;;;;;;;;;;;;;;;33.13;21.06;101863.72;4422184;32;20170;-68
2022/08/31 13:34:19;;;;;;;;;;;;;;;33.00;21.73;101855.03;4419355;32;19957;-68
2022/08/31 13:36:50;;;;;;;;;;;;;;;34.19;20.11;101853.50;4419815;32;20024;-68
2022/08/31 13:39:37;;;;;;;;;;;;;;;34.59;19.69;101862.59;4420087;32;19985;-68
2022/08/31 13:44:51;;;;;;;;;;;;;;;34.80;19.78;101851.53;3946498;32;15728118;-69
2022/08/31 13:47:26;;;;;;;;;;;;;;;34.80;19.80;101852.31;4421246;32;20594;-67
2022/08/31 13:50:01;;;;;;;;;;;;;;;35.36;19.49;101851.97;4422646;32;20027;-67
2022/08/31 13:52:29;;;;;;;;;;;;;;;36.28;18.45;101854.06;4423794;32;19992;-68
2022/08/31 13:54:57;;;;;;;;;;;;;;;36.19;18.61;101852.53;4421992;32;20805;-67
2022/08/31 13:57:24;;;;;;;;;;;;;;;35.73;18.85;101859.91;4421688;32;19977;-67
2022/08/31 13:59:50;;;;;;;;;;;;;;;34.42;20.15;101860.25;4421696;32;20505;-68
2022/08/31 14:04:59;;;;;;;;;;;;;;;33.46;21.55;101841.16;3945517;32;15724447;-68